createdAt,value
2022-12-23T12:23:06.688Z,98663.41
2022-12-23T12:25:48.795Z,98660.50
2022-12-23T12:28:32.762Z,98646.13
2022-12-23T12:31:12.819Z,98648.84
2022-12-23T12:34:14.797Z,98641.00
2022-12-23T12:37:21.332Z,98631.28
2022-12-23T12:40:06.347Z,98639.63
2022-12-23T12:42:52.467Z,98634.09
2022-12-23T12:45:32.433Z,98635.19
2022-12-23T12:48:30.353Z,98633.19
2022-12-23T12:51:26.688Z,98633.06
2022-12-23T12:54:25.291Z,98623.47
2022-12-23T12:56:56.588Z,98629.97
2022-12-23T12:59:33.565Z,98633.53
2022-12-23T13:02:45.828Z,98630.53
2022-12-23T13:05:34.874Z,98630.44
2022-12-23T13:08:23.808Z,98629.19
2022-12-23T13:11:16.824Z,98622.84
2022-12-23T13:14:08.979Z,98630.91
2022-12-23T13:17:15.762Z,98632.22
2022-12-23T13:20:09.477Z,98632.78
2022-12-23T13:22:38.670Z,98629.00
2022-12-23T13:25:15.138Z,98629.00
2022-12-23T13:28:08.483Z,98626.88
2022-12-23T13:30:46.887Z,98632.88
2022-12-23T13:34:10.724Z,98628.41
2022-12-23T13:37:33.708Z,98633.59
2022-12-23T13:40:26.453Z,98641.38
2022-12-23T13:43:03.647Z,98630.28
2022-12-23T13:45:38.003Z,98629.59
2022-12-23T13:48:40.923Z,98623.91
2022-12-23T13:51:32.496Z,98623.34
2022-12-23T13:54:32.800Z,98632.44
2022-12-23T13:57:08.226Z,98637.88
2022-12-23T13:59:44.582Z,98645.50
2022-12-23T14:02:36.992Z,98645.00
2022-12-23T14:05:26.187Z,98644.22
2022-12-23T14:07:54.716Z,98649.69
2022-12-23T14:10:25.129Z,98648.50
2022-12-23T14:13:01.761Z,98650.50
2022-12-23T14:15:55.666Z,98659.78
2022-12-23T14:18:44.911Z,98669.97
2022-12-23T14:21:40.920Z,98669.19
2022-12-23T14:24:29.973Z,98679.94
2022-12-23T14:27:36.236Z,98671.22
2022-12-23T14:30:37.248Z,98672.72
2022-12-23T14:33:37.654Z,98670.28
2022-12-23T14:36:25.366Z,98668.03
2022-12-23T14:39:11.499Z,98674.22
2022-12-23T14:41:57.589Z,98675.66
2022-12-23T14:44:37.586Z,98682.56
2022-12-23T14:47:33.244Z,98672.41
2022-12-23T14:50:39.862Z,98672.13
2022-12-23T14:53:26.764Z,98674.50
2022-12-23T14:56:26.259Z,98678.03
2022-12-23T14:59:09.279Z,98677.50
2022-12-23T15:01:48.572Z,98684.78
2022-12-23T15:04:21.075Z,98686.59
2022-12-23T15:06:55.567Z,98690.91
2022-12-23T15:09:45.688Z,98678.56
2022-12-23T15:12:20.736Z,98683.88
2022-12-23T15:14:58.612Z,98695.28
2022-12-23T15:17:33.625Z,98694.09
2022-12-23T15:20:10.181Z,98689.41
2022-12-23T15:22:39.484Z,98694.91
2022-12-23T15:25:31.581Z,98695.88
2022-12-23T15:28:02.905Z,98689.22
2022-12-23T15:30:46.101Z,98694.28
2022-12-23T15:34:00.631Z,98695.84
2022-12-23T15:36:10.942Z,98687.19
2022-12-23T15:38:42.348Z,98700.50
2022-12-23T15:41:18.796Z,98707.94
2022-12-23T15:43:46.703Z,98698.53
2022-12-23T15:46:29.218Z,98704.38
2022-12-23T15:48:58.596Z,98696.13
2022-12-23T15:51:57.664Z,98689.03
2022-12-23T15:54:26.956Z,98690.97
2022-12-23T15:56:57.769Z,98690.53
2022-12-23T15:59:43.983Z,98682.13
2022-12-23T16:03:06.691Z,98689.69
2022-12-23T16:05:46.295Z,98698.25
2022-12-23T16:08:19.366Z,98687.88
2022-12-23T16:11:20.476Z,98681.56
2022-12-23T16:14:02.507Z,98680.13
2022-12-23T16:16:38.655Z,98676.16
2022-12-23T16:19:53.186Z,98670.41
2022-12-23T16:22:21.044Z,98669.16
2022-12-23T16:25:04.063Z,98681.00
2022-12-23T16:27:58.338Z,98681.91
2022-12-23T16:30:34.121Z,98672.81
2022-12-23T16:33:07.008Z,98685.94
2022-12-23T16:35:43.475Z,98681.56
2022-12-23T16:38:26.691Z,98685.09
2022-12-23T16:40:57.200Z,98688.19
2022-12-23T16:43:25.700Z,98694.16
2022-12-23T16:45:57.418Z,98694.03
2022-12-23T16:48:42.082Z,98704.38
2022-12-23T16:51:18.525Z,98710.00
2022-12-23T16:53:55.837Z,98713.06
2022-12-23T16:56:42.085Z,98708.56
2022-12-23T16:59:10.642Z,98712.75
2022-12-23T17:01:48.541Z,98723.03
2022-12-23T17:04:16.510Z,98722.00
2022-12-23T17:06:46.691Z,98714.91
2022-12-23T17:09:14.567Z,98727.69
2022-12-23T17:11:53.072Z,98728.44
